createdAt,value
2019-02-18T00:01:28.860Z,48.57
2019-02-18T00:03:58.326Z,53.97
2019-02-18T00:06:27.855Z,61.80
2019-02-18T00:08:57.393Z,58.47
2019-02-18T00:11:29.854Z,56.43
2019-02-18T00:13:59.322Z,55.80
2019-02-18T00:16:28.959Z,57.47
2019-02-18T00:18:58.449Z,55.47
2019-02-18T00:21:27.933Z,58.63
2019-02-18T00:23:57.414Z,56.13
2019-02-18T00:26:26.870Z,54.93
2019-02-18T00:28:56.298Z,55.83
2019-02-18T00:31:25.799Z,63.43
2019-02-18T00:33:55.227Z,59.03
2019-02-18T00:36:24.546Z,63.00
2019-02-18T00:38:53.925Z,63.73
2019-02-18T00:41:23.297Z,65.97
2019-02-18T00:43:52.711Z,63.80
2019-02-18T00:46:22.034Z,63.53
2019-02-18T00:48:51.422Z,63.87
2019-02-18T00:51:20.788Z,65.87
2019-02-18T00:53:50.254Z,64.37
2019-02-18T00:56:19.650Z,64.63
2019-02-18T00:58:48.994Z,68.03
2019-02-18T01:01:18.426Z,68.33
2019-02-18T01:03:47.829Z,63.77
2019-02-18T01:06:17.205Z,65.13
2019-02-18T01:08:46.658Z,61.87
2019-02-18T01:11:16.101Z,61.00
2019-02-18T01:13:45.462Z,61.70
2019-02-18T01:16:14.796Z,60.73
2019-02-18T01:18:44.180Z,59.20
2019-02-18T01:21:13.634Z,57.70
2019-02-18T01:23:42.981Z,59.87
2019-02-18T01:26:12.470Z,59.90
2019-02-18T01:28:41.906Z,57.07
2019-02-18T01:31:11.356Z,56.47
2019-02-18T01:33:40.814Z,55.47
2019-02-18T01:36:10.293Z,57.30
2019-02-18T01:38:39.813Z,52.47
2019-02-18T01:41:09.291Z,54.83
2019-02-18T01:43:38.784Z,51.40
2019-02-18T01:46:08.358Z,54.27
2019-02-18T01:48:37.975Z,55.63
2019-02-18T01:51:07.454Z,54.23
2019-02-18T01:53:37.044Z,53.03
2019-02-18T01:56:06.514Z,53.87
2019-02-18T01:58:35.959Z,53.57
2019-02-18T02:01:05.646Z,53.40
2019-02-18T02:03:35.049Z,50.30
2019-02-18T02:06:04.514Z,51.90
2019-02-18T02:08:34.071Z,51.43
2019-02-18T02:11:03.579Z,50.80
2019-02-18T02:13:34.587Z,50.37
2019-02-18T02:16:06.324Z,50.80
2019-02-18T02:18:35.826Z,49.83
2019-02-18T02:21:05.329Z,48.67
2019-02-18T02:23:34.844Z,46.03
2019-02-18T02:26:04.331Z,45.13
2019-02-18T02:28:33.807Z,41.30
2019-02-18T02:31:03.281Z,42.20
2019-02-18T02:33:32.658Z,38.30
2019-02-18T02:36:02.131Z,39.23
2019-02-18T02:38:31.475Z,40.40
2019-02-18T02:41:00.909Z,38.60
2019-02-18T02:43:30.242Z,38.23
2019-02-18T02:45:59.700Z,36.70
2019-02-18T02:48:29.123Z,37.73
2019-02-18T02:50:58.583Z,37.03
2019-02-18T02:53:27.934Z,35.43
2019-02-18T02:55:57.397Z,34.93
2019-02-18T02:58:26.785Z,36.07
2019-02-18T03:00:56.358Z,33.23
2019-02-18T03:03:25.761Z,34.10
2019-02-18T03:05:55.222Z,37.97
2019-02-18T03:08:24.631Z,34.60
2019-02-18T03:10:54.020Z,34.77
2019-02-18T03:13:23.409Z,35.60
2019-02-18T03:15:52.872Z,35.93
2019-02-18T03:18:22.315Z,35.90
2019-02-18T03:20:51.691Z,34.80
2019-02-18T03:23:21.024Z,33.40
2019-02-18T03:25:52.197Z,35.03
2019-02-18T03:29:04.720Z,34.97
2019-02-18T03:31:34.226Z,33.20
2019-02-18T03:34:10.840Z,33.37
2019-02-18T03:36:40.260Z,33.03
2019-02-18T03:39:09.618Z,32.10
2019-02-18T03:41:40.985Z,32.03
2019-02-18T03:44:10.126Z,31.23
2019-02-18T03:46:39.641Z,31.57
2019-02-18T03:49:09.014Z,31.93
2019-02-18T03:51:38.488Z,31.93
2019-02-18T03:54:08.009Z,31.20
2019-02-18T03:56:37.490Z,30.60
2019-02-18T03:59:06.989Z,29.90
2019-02-18T04:01:36.478Z,26.97
2019-02-18T04:04:05.939Z,31.37
2019-02-18T04:06:35.410Z,31.83
2019-02-18T04:09:06.082Z,32.03
2019-02-18T04:11:35.646Z,31.20
2019-02-18T04:14:05.430Z,31.30
2019-02-18T04:16:34.897Z,29.73
2019-02-18T04:19:04.522Z,29.10
2019-02-18T04:21:34.122Z,30.17
2019-02-18T04:24:03.669Z,29.23
2019-02-18T04:26:33.128Z,27.30
2019-02-18T04:29:02.631Z,28.43
2019-02-18T04:31:32.151Z,28.90
2019-02-18T04:34:01.597Z,28.07
2019-02-18T04:36:31.055Z,27.63
2019-02-18T04:39:00.538Z,27.03
2019-02-18T04:41:29.900Z,26.97
2019-02-18T04:43:59.240Z,27.40
2019-02-18T04:46:29.008Z,27.83
2019-02-18T04:48:58.631Z,26.60
2019-02-18T04:51:28.051Z,25.07
2019-02-18T04:53:57.624Z,25.60
2019-02-18T04:56:27.140Z,25.70
2019-02-18T04:58:56.729Z,26.03
2019-02-18T05:01:26.301Z,27.57
2019-02-18T05:03:55.825Z,27.10
2019-02-18T05:06:25.598Z,26.43
2019-02-18T05:09:05.092Z,25.27
2019-02-18T05:11:26.384Z,26.10
2019-02-18T05:13:55.912Z,26.03
2019-02-18T05:16:25.412Z,25.00
2019-02-18T05:18:54.918Z,25.57
2019-02-18T05:21:24.301Z,25.07
2019-02-18T05:23:53.809Z,24.63
2019-02-18T05:26:23.232Z,24.90
2019-02-18T05:28:52.640Z,25.80
2019-02-18T05:31:22.047Z,25.67
2019-02-18T05:33:51.605Z,25.23
2019-02-18T05:36:21.190Z,26.10
2019-02-18T05:38:50.763Z,26.93
2019-02-18T05:41:20.329Z,27.13
2019-02-18T05:43:50.032Z,26.93
2019-02-18T05:46:19.606Z,25.60
2019-02-18T05:48:49.177Z,26.20
2019-02-18T05:51:18.730Z,25.63
2019-02-18T05:53:48.353Z,26.37
2019-02-18T05:56:18.878Z,24.20
2019-02-18T05:58:48.438Z,24.80
2019-02-18T06:01:19.585Z,25.20
2019-02-18T06:03:49.122Z,24.63
2019-02-18T06:06:18.736Z,25.33
2019-02-18T06:08:48.225Z,24.20
2019-02-18T06:11:17.754Z,27.80
2019-02-18T06:13:47.183Z,25.90
2019-02-18T06:16:16.688Z,25.57
2019-02-18T06:18:46.117Z,25.03
2019-02-18T06:21:15.705Z,25.87
2019-02-18T06:23:45.210Z,26.07
2019-02-18T06:26:23.510Z,26.60
2019-02-18T06:28:52.974Z,27.00
2019-02-18T06:31:22.558Z,26.63
2019-02-18T06:33:52.029Z,28.53
2019-02-18T06:36:23.801Z,27.50
2019-02-18T06:38:52.646Z,28.07
2019-02-18T06:41:22.338Z,26.80
2019-02-18T06:43:51.905Z,26.93
2019-02-18T06:46:51.193Z,27.00
2019-02-18T06:49:33.153Z,27.93
2019-02-18T06:52:14.137Z,27.57
2019-02-18T06:55:00.294Z,26.73
2019-02-18T06:58:00.755Z,27.47
2019-02-18T07:03:50.785Z,27.77
2019-02-18T07:06:51.285Z,29.00
2019-02-18T07:09:51.651Z,30.20
2019-02-18T07:12:38.886Z,30.03
2019-02-18T07:15:20.404Z,37.13
2019-02-18T07:18:01.056Z,38.03
2019-02-18T07:20:42.661Z,36.47
2019-02-18T07:23:24.082Z,37.27
2019-02-18T07:26:05.164Z,36.70
2019-02-18T07:28:45.722Z,38.23
2019-02-18T07:31:31.777Z,38.63
2019-02-18T07:34:12.701Z,37.80
2019-02-18T07:36:54.036Z,35.20
2019-02-18T07:39:35.212Z,34.47
2019-02-18T07:42:16.507Z,30.53
2019-02-18T07:45:00.661Z,33.83
2019-02-18T07:47:41.317Z,32.80
2019-02-18T07:53:07.144Z,31.07
2019-02-18T07:55:48.032Z,31.67
2019-02-18T07:58:29.420Z,30.90
2019-02-18T08:01:10.649Z,32.63
2019-02-18T08:03:51.393Z,31.77
2019-02-18T08:06:32.373Z,29.87
2019-02-18T08:09:13.857Z,28.90
2019-02-18T08:11:55.596Z,24.07
2019-02-18T08:14:37.357Z,22.67
2019-02-18T08:17:18.204Z,22.20
2019-02-18T08:19:59.754Z,22.27
2019-02-18T08:22:40.979Z,23.70
2019-02-18T08:25:25.405Z,22.37
2019-02-18T08:28:09.146Z,23.77
2019-02-18T08:30:56.103Z,22.83
2019-02-18T08:33:43.116Z,22.20
2019-02-18T08:36:24.158Z,21.50
2019-02-18T08:39:05.172Z,21.40
2019-02-18T08:41:46.511Z,21.67
2019-02-18T08:44:29.386Z,21.77
2019-02-18T08:47:13.667Z,21.77
2019-02-18T08:49:55.118Z,22.87
2019-02-18T08:52:37.341Z,25.93
2019-02-18T08:55:19.699Z,25.40
2019-02-18T08:58:05.016Z,26.87
2019-02-18T09:00:45.822Z,28.17
2019-02-18T09:03:29.826Z,28.10
2019-02-18T09:06:09.435Z,25.50
2019-02-18T09:08:57.840Z,30.77
2019-02-18T09:11:40.068Z,33.63
2019-02-18T09:14:19.626Z,34.60
2019-02-18T09:17:01.000Z,35.23
2019-02-18T09:19:41.642Z,35.10
2019-02-18T09:22:49.944Z,35.63
2019-02-18T09:28:44.625Z,38.13
2019-02-18T09:34:08.394Z,39.07
2019-02-18T09:37:08.883Z,45.17
2019-02-18T09:39:49.785Z,44.97
2019-02-18T09:42:31.254Z,43.73
2019-02-18T09:45:14.885Z,49.27
2019-02-18T09:47:56.434Z,52.37
2019-02-18T09:50:38.597Z,50.17
2019-02-18T09:53:19.700Z,50.53
2019-02-18T09:56:01.423Z,52.33
2019-02-18T09:58:42.083Z,55.97
2019-02-18T10:01:23.126Z,53.03
2019-02-18T10:04:04.426Z,53.17
2019-02-18T10:06:46.037Z,53.43
2019-02-18T10:09:26.921Z,55.60
2019-02-18T10:12:18.360Z,57.30
2019-02-18T10:14:57.095Z,55.07
2019-02-18T10:20:24.297Z,54.07
2019-02-18T10:23:04.972Z,52.80
2019-02-18T10:28:33.985Z,56.67
2019-02-18T10:34:35.978Z,60.07
2019-02-18T10:37:23.448Z,58.73
2019-02-18T10:43:32.687Z,60.03
2019-02-18T10:46:17.222Z,59.37
2019-02-18T10:48:57.986Z,56.73
2019-02-18T10:51:39.056Z,55.03
2019-02-18T10:54:08.823Z,51.63
2019-02-18T10:56:57.318Z,52.70
2019-02-18T10:59:26.910Z,54.07
2019-02-18T11:02:16.579Z,55.73
2019-02-18T11:05:42.903Z,52.87
2019-02-18T11:08:23.744Z,54.00
2019-02-18T11:13:50.293Z,51.87
2019-02-18T11:16:30.980Z,50.77
2019-02-18T11:22:04.383Z,52.63
2019-02-18T11:24:45.959Z,52.43
2019-02-18T11:27:27.183Z,52.87
2019-02-18T11:30:08.344Z,52.50
2019-02-18T11:32:52.626Z,51.10
2019-02-18T11:35:33.235Z,46.60
2019-02-18T11:38:22.117Z,45.70
2019-02-18T11:41:03.836Z,45.43
2019-02-18T11:43:44.743Z,43.07
2019-02-18T11:46:25.765Z,42.27
2019-02-18T11:49:10.012Z,43.30
2019-02-18T11:51:51.248Z,44.93
2019-02-18T11:54:33.034Z,44.33
2019-02-18T11:57:14.462Z,45.20
2019-02-18T11:59:55.057Z,47.87
2019-02-18T12:02:36.612Z,48.87
2019-02-18T12:05:18.899Z,43.80
2019-02-18T12:08:00.028Z,45.37
2019-02-18T12:13:23.650Z,43.23
2019-02-18T12:16:04.814Z,44.07
2019-02-18T12:18:46.302Z,43.13
2019-02-18T12:21:27.606Z,42.13
2019-02-18T12:24:08.316Z,42.83
2019-02-18T12:26:49.598Z,42.00
2019-02-18T12:29:31.134Z,41.67
2019-02-18T12:32:10.983Z,40.87
2019-02-18T12:34:51.801Z,37.50
2019-02-18T12:37:33.421Z,39.60
2019-02-18T12:40:17.851Z,39.20
2019-02-18T12:42:58.599Z,36.50
2019-02-18T12:45:39.895Z,29.70
2019-02-18T12:48:21.876Z,29.80
2019-02-18T12:51:02.815Z,30.53
2019-02-18T12:53:46.130Z,33.67
2019-02-18T12:56:26.725Z,36.57
2019-02-18T12:59:07.506Z,34.33
2019-02-18T13:01:48.738Z,36.10
2019-02-18T13:04:31.943Z,38.03
2019-02-18T13:07:11.877Z,41.43
2019-02-18T13:09:53.458Z,39.40
2019-02-18T13:12:34.775Z,37.83
2019-02-18T13:15:19.220Z,38.27
2019-02-18T13:20:42.163Z,39.87
2019-02-18T13:23:23.785Z,39.43
2019-02-18T13:26:05.141Z,39.97
2019-02-18T13:28:47.746Z,38.67
2019-02-18T13:31:29.559Z,39.73
2019-02-18T13:34:11.250Z,39.73
2019-02-18T13:36:52.731Z,39.20
2019-02-18T13:39:33.943Z,43.13
2019-02-18T13:42:15.213Z,40.93
2019-02-18T13:44:56.567Z,43.13
2019-02-18T13:47:38.141Z,41.17
2019-02-18T13:50:19.768Z,40.87
2019-02-18T13:53:01.151Z,41.97
2019-02-18T13:55:42.691Z,40.63
2019-02-18T13:58:12.265Z,41.30
2019-02-18T14:00:53.020Z,40.60
2019-02-18T14:03:34.440Z,39.33
2019-02-18T14:06:22.144Z,40.47
2019-02-18T14:09:03.148Z,39.77
2019-02-18T14:11:44.110Z,38.23
2019-02-18T14:14:25.538Z,38.30
2019-02-18T14:17:07.058Z,41.10
2019-02-18T14:19:48.495Z,41.83
2019-02-18T14:22:29.792Z,41.80
2019-02-18T14:25:13.388Z,41.63
2019-02-18T14:28:07.093Z,45.00
2019-02-18T14:30:48.801Z,43.47
2019-02-18T14:33:30.032Z,45.37
2019-02-18T14:36:11.145Z,42.97
2019-02-18T14:38:52.683Z,42.60
2019-02-18T14:41:34.479Z,43.60
2019-02-18T14:47:05.333Z,43.30
2019-02-18T14:49:46.335Z,44.13
2019-02-18T14:52:40.197Z,44.27
2019-02-18T14:55:22.781Z,41.57
2019-02-18T14:58:03.893Z,41.73
2019-02-18T15:00:45.383Z,42.37
2019-02-18T15:03:32.013Z,40.23
2019-02-18T15:06:20.525Z,39.87
2019-02-18T15:09:25.801Z,41.77
2019-02-18T15:12:19.244Z,41.87
2019-02-18T15:15:00.287Z,41.37
2019-02-18T15:17:41.651Z,40.97
2019-02-18T15:20:11.665Z,40.63
2019-02-18T15:23:20.490Z,41.77
2019-02-18T15:26:03.758Z,41.47
2019-02-18T15:28:33.154Z,43.47
2019-02-18T15:31:21.911Z,40.97
2019-02-18T15:34:10.407Z,43.47
2019-02-18T15:36:53.121Z,45.73
2019-02-18T15:39:36.565Z,47.03
2019-02-18T15:42:22.034Z,47.83
2019-02-18T15:48:01.516Z,51.73
2019-02-18T15:50:36.786Z,50.17
2019-02-18T15:53:24.111Z,52.07
2019-02-18T15:56:09.577Z,51.03
2019-02-18T15:59:09.872Z,55.77
2019-02-18T16:01:52.293Z,56.17
2019-02-18T16:04:32.794Z,57.97
2019-02-18T16:07:14.868Z,62.40
2019-02-18T16:10:05.544Z,63.33
2019-02-18T16:16:01.763Z,62.20
2019-02-18T16:18:42.810Z,62.30
2019-02-18T16:24:29.838Z,60.43
2019-02-18T16:27:21.941Z,62.83
2019-02-18T16:30:18.292Z,63.23
2019-02-18T16:32:59.980Z,65.97
2019-02-18T16:38:43.726Z,66.50
2019-02-18T16:45:09.278Z,68.80
2019-02-18T16:47:58.195Z,69.43
2019-02-18T16:50:41.909Z,69.77
2019-02-18T16:53:24.292Z,79.03
2019-02-18T16:56:03.874Z,77.07
2019-02-18T16:58:54.081Z,80.13
2019-02-18T17:01:38.191Z,75.87
2019-02-18T17:04:20.615Z,78.67
2019-02-18T17:07:02.328Z,77.60
2019-02-18T17:09:45.244Z,77.97
2019-02-18T17:12:26.303Z,76.40
2019-02-18T17:15:07.618Z,80.83
2019-02-18T17:17:49.596Z,78.83
2019-02-18T17:20:30.892Z,80.47
2019-02-18T17:23:27.939Z,78.47
2019-02-18T17:26:08.999Z,73.80
2019-02-18T17:28:53.599Z,74.90
2019-02-18T17:31:33.192Z,74.83
2019-02-18T17:34:42.395Z,74.07
2019-02-18T17:37:23.330Z,71.47
2019-02-18T17:40:07.983Z,72.93
2019-02-18T17:42:49.135Z,73.33
2019-02-18T17:45:30.676Z,70.90
2019-02-18T17:48:11.416Z,68.97
2019-02-18T17:50:52.500Z,68.90
2019-02-18T17:53:33.575Z,69.97
2019-02-18T17:56:15.891Z,61.40
2019-02-18T17:58:56.905Z,64.07
2019-02-18T18:01:51.900Z,61.30
2019-02-18T18:04:32.630Z,61.00
2019-02-18T18:07:20.402Z,61.17
2019-02-18T18:10:03.695Z,60.43
2019-02-18T18:12:45.145Z,55.80
2019-02-18T18:15:27.973Z,55.83
2019-02-18T18:18:13.578Z,53.63
2019-02-18T18:24:03.883Z,50.80
2019-02-18T18:26:47.341Z,47.03
2019-02-18T18:29:28.893Z,47.00
2019-02-18T18:32:11.842Z,44.87
2019-02-18T18:34:54.138Z,45.37
2019-02-18T18:37:35.809Z,40.70
2019-02-18T18:40:17.624Z,35.53
2019-02-18T18:43:00.454Z,34.53
2019-02-18T18:45:45.161Z,33.33
2019-02-18T18:48:31.247Z,33.60
2019-02-18T18:51:14.225Z,33.60
2019-02-18T18:54:02.619Z,31.47
2019-02-18T18:56:46.291Z,30.53
2019-02-18T18:59:32.794Z,31.53
2019-02-18T19:02:14.066Z,33.30
2019-02-18T19:04:55.744Z,35.07
2019-02-18T19:07:37.451Z,35.10
2019-02-18T19:10:19.954Z,34.33
2019-02-18T19:13:03.382Z,35.47
2019-02-18T19:15:49.640Z,35.17
2019-02-18T19:18:27.174Z,36.00
2019-02-18T19:21:09.711Z,34.93
2019-02-18T19:23:51.551Z,34.63
2019-02-18T19:26:32.894Z,34.40
2019-02-18T19:29:15.867Z,32.93
2019-02-18T19:31:57.483Z,31.23
2019-02-18T19:34:37.628Z,33.13
2019-02-18T19:37:26.713Z,33.43
2019-02-18T19:40:10.313Z,31.13
2019-02-18T19:42:51.414Z,30.37
2019-02-18T19:45:35.071Z,31.83
2019-02-18T19:48:16.263Z,27.83
2019-02-18T19:50:46.549Z,24.53
2019-02-18T19:53:36.483Z,25.03
2019-02-18T19:56:26.390Z,23.53
2019-02-18T19:59:07.816Z,22.43
2019-02-18T20:01:52.497Z,23.47
2019-02-18T20:04:34.237Z,22.80
2019-02-18T20:07:26.764Z,23.40
2019-02-18T20:10:11.989Z,23.43
2019-02-18T20:12:55.094Z,24.00
2019-02-18T20:15:38.328Z,26.70
2019-02-18T20:18:19.826Z,25.83
2019-02-18T20:21:06.945Z,25.90
2019-02-18T20:24:09.584Z,33.03
2019-02-18T20:26:51.140Z,28.33
2019-02-18T20:29:32.665Z,28.20
2019-02-18T20:32:13.726Z,29.80
2019-02-18T20:34:55.909Z,28.37
2019-02-18T20:37:43.710Z,28.33
2019-02-18T20:43:27.261Z,30.40
2019-02-18T20:46:14.206Z,26.93
2019-02-18T20:51:38.764Z,26.40
2019-02-18T20:54:27.719Z,26.40
2019-02-18T20:57:09.276Z,31.77
2019-02-18T20:59:51.370Z,31.47
2019-02-18T21:02:32.375Z,34.67
2019-02-18T21:05:13.733Z,36.77
2019-02-18T21:11:30.867Z,37.53
2019-02-18T21:14:16.190Z,36.70
2019-02-18T21:16:57.063Z,35.73
2019-02-18T21:19:39.694Z,32.33
2019-02-18T21:22:27.961Z,33.63
2019-02-18T21:25:19.195Z,33.33
2019-02-18T21:28:00.380Z,35.20
2019-02-18T21:30:46.424Z,39.10
2019-02-18T21:33:29.828Z,40.13
2019-02-18T21:36:11.018Z,41.97
2019-02-18T21:42:00.470Z,42.57
2019-02-18T21:44:42.752Z,43.33
2019-02-18T21:47:24.154Z,45.23
2019-02-18T21:50:09.554Z,46.27
2019-02-18T21:52:51.554Z,46.37
2019-02-18T21:55:34.364Z,46.17
2019-02-18T21:58:17.055Z,47.87
2019-02-18T22:00:59.550Z,51.30
2019-02-18T22:07:01.922Z,52.40
2019-02-18T22:09:59.523Z,55.67
2019-02-18T22:12:41.043Z,61.20
2019-02-18T22:15:22.268Z,63.20
2019-02-18T22:18:03.337Z,64.53
2019-02-18T22:20:48.049Z,69.63
2019-02-18T22:23:28.507Z,69.70
2019-02-18T22:26:17.275Z,68.47
2019-02-18T22:28:58.885Z,74.10
2019-02-18T22:31:39.902Z,77.27
2019-02-18T22:34:23.196Z,76.60
2019-02-18T22:37:04.447Z,76.83
2019-02-18T22:43:07.942Z,81.73
2019-02-18T22:48:51.701Z,89.03
2019-02-18T22:51:32.649Z,90.93
2019-02-18T22:54:17.020Z,91.43
2019-02-18T22:57:00.586Z,93.93
2019-02-18T23:00:02.824Z,97.00
2019-02-18T23:05:53.079Z,92.20
2019-02-18T23:08:34.008Z,90.80
2019-02-18T23:11:18.997Z,97.10
2019-02-18T23:14:05.108Z,95.40
2019-02-18T23:16:50.592Z,94.90
2019-02-18T23:19:32.126Z,101.20
2019-02-18T23:25:36.831Z,107.87
2019-02-18T23:31:21.395Z,110.07
2019-02-18T23:34:18.635Z,100.37
2019-02-18T23:37:04.275Z,105.53
2019-02-18T23:39:46.401Z,106.00
2019-02-18T23:42:29.667Z,103.33
2019-02-18T23:45:11.111Z,106.63
2019-02-18T23:47:55.846Z,104.27
2019-02-18T23:50:41.464Z,108.63
2019-02-18T23:53:23.392Z,103.10
2019-02-18T23:56:04.722Z,104.30
2019-02-18T23:58:45.827Z,104.87
